Time;durP1;ratioP1;P1;durP2;ratioP2;P2;SDS_P1;SDS_P2;PMS_P1;PMS_P2;Temp;Humidity;BMP_temperature;BMP_pressure;BME280_temperature;BME280_humidity;BME280_pressure;Samples;Min_cycle;Max_cycle;Signal;HPM_P1;HPM_P2
2021/01/17 00:03:51;;;;;;;30.30;10.57;;;;;;;-2.46;82.64;100665.48;3789925;76;25824;-96
2021/01/17 00:08:52;;;;;;;20.60;7.37;;;;;;;-2.53;82.76;100670.41;3781185;76;97694;-96
2021/01/17 00:24:55;;;;;;;20.80;9.45;;;;;;;-3.20;82.32;100689.31;3625797;79;31391;-96
2021/01/17 00:29:56;;;;;;;26.53;9.97;;;;;;;-3.20;83.27;100694.70;3709194;77;97772;-96
2021/01/17 00:34:57;;;;;;;28.67;11.07;;;;;;;-3.14;82.78;100701.65;3723136;78;25783;-96
2021/01/17 00:39:58;;;;;;;18.33;7.80;;;;;;;-3.10;82.72;100696.50;3749987;77;97923;-96
2021/01/17 00:44:59;;;;;;;37.87;11.03;;;;;;;-3.17;82.50;100702.20;3672907;79;25902;-96
2021/01/17 00:50:01;;;;;;;28.63;9.27;;;;;;;-3.36;82.47;100705.30;3735439;78;97687;-96
2021/01/17 01:31:54;;;;;;;22.40;7.67;;;;;;;-4.16;80.10;100729.84;3748978;77;26542;-96
2021/01/17 01:36:55;;;;;;;22.50;11.20;;;;;;;-4.29;80.27;100737.15;3667799;78;25894;-96
2021/01/17 01:41:56;;;;;;;20.10;8.07;;;;;;;-4.27;80.80;100740.91;3682903;78;97528;-96
2021/01/17 01:46:57;;;;;;;17.37;6.50;;;;;;;-4.23;80.91;100733.90;3678452;78;25821;-96
2021/01/17 01:52:01;;;;;;;27.90;10.70;;;;;;;-4.17;80.70;100739.52;3742240;77;97315;-96
2021/01/17 01:57:02;;;;;;;17.23;6.87;;;;;;;-4.13;80.56;100741.94;3674148;79;27446;-96
2021/01/17 02:02:10;;;;;;;18.47;7.57;;;;;;;-4.15;80.86;100744.89;3672386;79;97336;-96
2021/01/17 02:07:53;;;;;;;20.10;8.87;;;;;;;-4.15;80.49;100741.42;3705697;79;27442;-96
2021/01/17 02:13:05;;;;;;;22.33;7.67;;;;;;;-4.05;80.93;100740.84;3691929;78;27463;-96
2021/01/17 02:18:09;;;;;;;16.43;5.93;;;;;;;-4.00;79.92;100740.01;3688769;78;97489;-96
2021/01/17 02:23:45;;;;;;;17.07;6.27;;;;;;;-4.19;78.93;100744.38;3802544;76;27474;-96
2021/01/17 02:28:49;;;;;;;17.23;6.70;;;;;;;-4.34;79.96;100743.88;3788587;76;97578;-96
2021/01/17 02:33:53;;;;;;;14.93;6.30;;;;;;;-4.41;79.55;100751.41;3805289;76;27582;-95
2021/01/17 02:39:14;;;;;;;15.65;6.30;;;;;;;-4.81;77.79;100759.47;3799565;76;98596;-96
2021/01/17 02:44:15;;;;;;;15.30;5.97;;;;;;;-5.12;78.56;100754.35;3803759;76;27449;-96
2021/01/17 02:49:17;;;;;;;13.22;5.67;;;;;;;-5.29;78.06;100742.50;3774448;76;98269;-96
2021/01/17 02:54:40;;;;;;;15.00;6.57;;;;;;;-5.52;78.08;100748.91;3814172;76;27530;-96
2021/01/17 02:59:54;;;;;;;15.43;6.00;;;;;;;-5.66;78.08;100755.82;3764496;76;98082;-96
2021/01/17 03:04:59;;;;;;;12.53;4.83;;;;;;;-5.92;77.49;100760.83;3725245;77;27466;-96
2021/01/17 03:10:05;;;;;;;14.90;6.47;;;;;;;-6.14;77.18;100766.88;3752007;77;98096;-96
2021/01/17 03:15:07;;;;;;;14.07;5.37;;;;;;;-6.31;77.58;100764.90;3788007;77;27550;-96
2021/01/17 03:20:09;;;;;;;15.97;6.40;;;;;;;-6.35;77.58;100770.48;3806269;76;97507;-96
2021/01/17 03:25:11;;;;;;;17.97;6.00;;;;;;;-6.39;77.82;100775.56;3804852;77;25908;-96
2021/01/17 03:30:13;;;;;;;17.87;6.60;;;;;;;-6.33;77.12;100787.13;3803620;77;97484;-96
2021/01/17 03:35:14;;;;;;;18.30;7.00;;;;;;;-6.44;77.22;100777.41;3817240;77;27641;-96
2021/01/17 03:40:15;;;;;;;16.63;6.30;;;;;;;-6.45;76.96;100787.30;3802145;77;97450;-96
2021/01/17 03:45:16;;;;;;;15.40;5.92;;;;;;;-6.52;76.78;100796.61;3802796;76;26055;-96
2021/01/17 03:50:17;;;;;;;17.13;6.57;;;;;;;-6.57;77.35;100796.56;3807318;77;97453;-96
2021/01/17 03:55:18;;;;;;;16.30;6.83;;;;;;;-6.47;77.11;100795.31;3823121;77;25782;-96
2021/01/17 04:00:20;;;;;;;18.77;6.60;;;;;;;-6.49;76.92;100793.44;3809770;76;97476;-96
2021/01/17 04:05:21;;;;;;;18.13;6.73;;;;;;;-6.52;77.06;100794.75;3815961;77;25980;-96
2021/01/17 04:10:22;;;;;;;17.13;6.90;;;;;;;-6.48;77.62;100791.84;3815090;77;97492;-96
2021/01/17 04:15:23;;;;;;;22.43;7.43;;;;;;;-6.46;77.53;100804.43;3808826;77;25916;-96
2021/01/17 04:20:24;;;;;;;18.37;7.33;;;;;;;-6.34;77.40;100805.05;3818868;76;97469;-96
2021/01/17 04:25:25;;;;;;;19.43;7.30;;;;;;;-6.25;77.10;100816.91;3814431;76;25675;-96
2021/01/17 04:30:34;;;;;;;21.40;8.37;;;;;;;-6.25;76.42;100819.58;3813863;76;97484;-96
2021/01/17 04:35:35;;;;;;;23.10;9.07;;;;;;;-6.55;75.88;100823.91;3812638;77;27482;-96
2021/01/17 04:40:36;;;;;;;28.63;9.70;;;;;;;-6.76;75.71;100820.23;3776127;77;97490;-96
2021/01/17 04:45:37;;;;;;;25.30;7.87;;;;;;;-7.02;76.48;100822.41;3796327;77;25821;-96
2021/01/17 04:50:39;;;;;;;22.93;8.45;;;;;;;-6.89;77.65;100824.66;3780401;76;97540;-96
2021/01/17 04:55:41;;;;;;;29.93;10.57;;;;;;;-6.83;76.51;100828.20;3792580;77;27477;-96
2021/01/17 05:00:45;;;;;;;42.80;14.43;;;;;;;-6.97;77.13;100829.15;3796258;77;97942;-96
2021/01/17 05:06:06;;;;;;;25.07;10.50;;;;;;;-7.23;75.26;100829.11;3805960;76;27435;-96
2021/01/17 05:11:09;;;;;;;27.30;9.57;;;;;;;-7.60;75.64;100825.47;3787043;76;97531;-96
2021/01/17 05:16:10;;;;;;;20.30;6.37;;;;;;;-7.57;76.01;100831.16;3768357;77;27350;-96
2021/01/17 05:21:12;;;;;;;21.63;7.70;;;;;;;-7.50;75.27;100824.26;3775788;77;98407;-96
2021/01/17 05:26:13;;;;;;;24.13;9.83;;;;;;;-7.72;74.63;100833.63;3803923;76;25919;-96
2021/01/17 05:31:17;;;;;;;21.83;8.43;;;;;;;-7.87;74.67;100840.61;3781880;77;98005;-96
2021/01/17 05:36:18;;;;;;;24.37;9.93;;;;;;;-8.17;74.37;100845.02;3764763;77;27527;-96
2021/01/17 05:41:26;;;;;;;26.87;9.73;;;;;;;-8.52;73.76;100852.48;3779019;77;97261;-96
2021/01/17 05:46:27;;;;;;;18.47;6.83;;;;;;;-8.71;73.59;100841.78;3757428;76;27392;-96
2021/01/17 05:51:28;;;;;;;30.57;9.77;;;;;;;-8.62;74.91;100854.20;3783079;76;97323;-96
2021/01/17 05:56:32;;;;;;;32.70;9.53;;;;;;;-8.71;75.49;100863.63;3788134;76;25872;-96
2021/01/17 06:01:34;;;;;;;34.67;10.47;;;;;;;-8.74;73.85;100870.25;3792228;76;97359;-96
2021/01/17 06:06:36;;;;;;;33.03;11.10;;;;;;;-8.64;75.10;100885.11;3795556;76;27680;-96
2021/01/17 06:11:39;;;;;;;33.67;10.00;;;;;;;-8.44;76.26;100893.47;3750798;76;97492;-96
2021/01/17 06:16:41;;;;;;;28.33;10.17;;;;;;;-8.20;76.32;100904.26;3795651;76;27276;-96
2021/01/17 06:21:48;;;;;;;31.33;11.45;;;;;;;-8.16;75.44;100912.55;3782895;77;97482;-95
2021/01/17 06:26:53;;;;;;;26.67;10.23;;;;;;;-8.17;75.28;100913.09;3801334;76;27498;-96
2021/01/17 06:32:00;;;;;;;24.27;10.05;;;;;;;-8.10;75.49;100923.59;3801844;75;98130;-96
2021/01/17 06:37:04;;;;;;;20.63;7.97;;;;;;;-8.06;74.75;100932.74;3804230;77;27691;-96
2021/01/17 06:42:10;;;;;;;17.43;6.90;;;;;;;-7.95;75.72;100937.19;3809877;76;97429;-96
2021/01/17 06:47:22;;;;;;;17.43;6.70;;;;;;;-7.93;75.29;100943.91;3810265;76;28042;-96
2021/01/17 06:52:23;;;;;;;21.90;7.30;;;;;;;-8.12;74.04;100945.19;3800556;75;97302;-96
2021/01/17 06:57:30;;;;;;;29.20;10.97;;;;;;;-8.07;74.25;100959.95;3812410;76;25843;-96
2021/01/17 07:02:38;;;;;;;32.40;11.57;;;;;;;-8.41;73.81;100962.89;3740592;77;98830;-96
2021/01/17 07:08:24;;;;;;;25.80;9.00;;;;;;;-8.63;74.01;100957.92;3736492;77;98041;-96
2021/01/17 07:13:31;;;;;;;27.20;8.27;;;;;;;-8.99;73.80;100960.44;3702750;76;27439;-96
2021/01/17 07:18:37;;;;;;;30.87;11.13;;;;;;;-9.13;72.92;100963.10;3740571;77;97497;-96
2021/01/17 07:23:39;;;;;;;29.40;9.80;;;;;;;-9.51;74.91;100971.33;3752201;76;27595;-96
2021/01/17 07:28:42;;;;;;;22.10;7.33;;;;;;;-9.17;76.02;100980.60;3724979;76;97502;-96
2021/01/17 07:33:46;;;;;;;36.37;13.33;;;;;;;-9.47;73.48;100990.63;3710611;79;27667;-96
2021/01/17 07:38:53;;;;;;;27.27;11.10;;;;;;;-9.42;74.06;100982.75;3729546;78;98285;-94
2021/01/17 07:43:59;;;;;;;21.47;8.93;;;;;;;-9.57;74.86;100993.56;3648206;79;27769;-96
2021/01/17 07:49:02;;;;;;;25.67;9.97;;;;;;;-9.41;75.36;100993.69;3647904;77;98240;-96
2021/01/17 07:54:24;;;;;;;29.43;10.80;;;;;;;-9.40;75.56;101007.80;3627366;78;27696;-96
2021/01/17 07:59:26;;;;;;;29.87;12.40;;;;;;;-9.35;75.73;101010.58;3576385;80;98659;-96
2021/01/17 08:04:29;;;;;;;35.10;11.63;;;;;;;-9.27;75.28;101015.03;3655683;79;28369;-96
2021/01/17 08:09:47;;;;;;;31.23;11.38;;;;;;;-9.28;74.97;101017.41;3643459;80;98688;-96
2021/01/17 08:14:48;;;;;;;28.63;11.27;;;;;;;-9.46;73.88;101019.39;3652556;79;27453;-96
2021/01/17 08:20:00;;;;;;;28.00;10.17;;;;;;;-9.58;74.58;101020.74;3648922;78;97968;-96
2021/01/17 08:25:05;;;;;;;24.33;7.90;;;;;;;-9.65;74.61;101029.88;3648821;79;27496;-96
2021/01/17 08:30:14;;;;;;;30.27;11.57;;;;;;;-9.63;74.61;101019.29;3631649;80;98458;-96
2021/01/17 08:35:26;;;;;;;31.40;11.33;;;;;;;-9.72;75.98;101028.66;3625329;80;27329;-96
2021/01/17 08:40:35;;;;;;;31.03;12.10;;;;;;;-9.54;75.26;101042.40;3644801;79;98620;-95
2021/01/17 08:45:46;;;;;;;30.60;11.33;;;;;;;-9.00;76.32;101044.69;3667340;79;27412;-96
2021/01/17 08:50:57;;;;;;;27.37;9.73;;;;;;;-8.71;75.55;101046.34;3662785;79;98557;-95
2021/01/17 08:56:13;;;;;;;31.40;12.63;;;;;;;-8.64;74.95;101060.35;3664406;79;28260;-96
2021/01/17 09:01:16;;;;;;;26.95;9.53;;;;;;;-8.17;75.02;101067.13;3657262;79;98259;-95
2021/01/17 09:06:27;;;;;;;27.20;10.03;;;;;;;-7.85;73.79;101084.27;3668615;79;27459;-95
2021/01/17 09:11:40;;;;;;;25.73;9.63;;;;;;;-7.57;74.17;101086.37;3649778;79;98268;-95
2021/01/17 09:16:51;;;;;;;28.43;11.27;;;;;;;-7.39;72.61;101094.13;3665900;79;27529;-95
2021/01/17 09:21:55;;;;;;;46.00;16.27;;;;;;;-7.36;73.42;101096.84;3653851;79;98374;-93
2021/01/17 09:27:00;;;;;;;46.97;17.83;;;;;;;-7.05;71.89;101098.39;3669929;79;27614;-94
2021/01/17 09:32:12;;;;;;;37.23;14.60;;;;;;;-7.09;71.69;101100.47;3683463;77;98308;-95
2021/01/17 09:37:16;;;;;;;29.77;12.30;;;;;;;-6.96;71.88;101100.12;3780496;76;28180;-94
2021/01/17 09:42:23;;;;;;;32.83;12.85;;;;;;;-6.99;71.59;101108.11;3767660;77;98427;-94
2021/01/17 09:47:26;;;;;;;22.83;10.93;;;;;;;-7.06;70.81;101095.95;3740541;76;26639;-94
2021/01/17 09:52:27;;;;;;;31.03;11.20;;;;;;;-6.95;70.82;101107.09;3757994;77;98241;-93
2021/01/17 09:57:28;;;;;;;46.80;16.30;;;;;;;-7.13;70.00;101106.02;3756990;77;26543;-94
2021/01/17 10:02:30;;;;;;;26.50;11.23;;;;;;;-7.17;70.87;101102.21;3748971;77;98062;-93
2021/01/17 10:07:31;;;;;;;41.00;12.47;;;;;;;-6.91;71.82;101103.69;3768323;77;27513;-96
2021/01/17 10:12:32;;;;;;;29.33;12.43;;;;;;;-6.95;70.30;101102.55;3766445;77;97954;-94
2021/01/17 10:17:33;;;;;;;36.03;13.55;;;;;;;-6.95;71.47;101103.89;3776255;77;26498;-95
2021/01/17 10:22:35;;;;;;;32.63;11.93;;;;;;;-6.96;70.64;101113.50;3767464;77;98305;-95
2021/01/17 10:27:36;;;;;;;35.23;12.37;;;;;;;-7.00;71.14;101107.83;3763059;77;98631;-88
2021/01/17 10:32:40;;;;;;;29.97;12.23;;;;;;;-6.82;71.37;101101.41;3754660;76;25994;-96
2021/01/17 10:37:42;;;;;;;27.37;10.53;;;;;;;-7.21;71.12;101103.23;3774375;76;98655;-94
2021/01/17 10:42:43;;;;;;;24.00;9.47;;;;;;;-7.25;71.05;101103.43;3763421;77;27657;-95
2021/01/17 10:48:05;;;;;;;27.10;10.17;;;;;;;-7.32;71.67;101097.44;3749036;77;98239;-95
2021/01/17 10:53:23;;;;;;;27.10;10.90;;;;;;;-7.16;71.84;101107.84;3761654;77;27459;-95
2021/01/17 10:58:31;;;;;;;35.98;14.20;;;;;;;-7.02;71.81;101101.93;3767496;77;98456;-96
2021/01/17 11:03:40;;;;;;;31.80;13.43;;;;;;;-6.96;72.09;101108.14;3762171;77;27486;-95
2021/01/17 11:08:48;;;;;;;34.03;12.73;;;;;;;-6.78;72.42;101108.67;3760182;76;98408;-96
2021/01/17 11:14:03;;;;;;;30.57;11.30;;;;;;;-6.41;72.74;101100.84;3761521;76;27459;-96
2021/01/17 11:19:07;;;;;;;27.50;12.23;;;;;;;-6.22;72.18;101099.48;3755372;77;98332;-96
2021/01/17 11:24:11;;;;;;;30.97;10.77;;;;;;;-6.00;71.94;101107.75;3770441;76;27444;-95
2021/01/17 11:29:15;;;;;;;31.30;11.70;;;;;;;-5.96;72.02;101106.72;3758399;76;98332;-94
2021/01/17 11:34:17;;;;;;;26.90;9.80;;;;;;;-5.92;70.32;101110.52;3763020;77;27654;-96
2021/01/17 11:39:20;;;;;;;28.70;10.13;;;;;;;-5.93;70.59;101105.70;3757390;77;98082;-96
2021/01/17 11:44:25;;;;;;;31.50;10.13;;;;;;;-6.08;70.40;101109.55;3739285;77;27656;-96
2021/01/17 11:49:28;;;;;;;25.00;10.07;;;;;;;-6.13;69.55;101122.07;3751121;77;98586;-96
2021/01/17 11:54:32;;;;;;;27.77;10.13;;;;;;;-6.33;68.55;101125.87;3756539;77;27540;-96
2021/01/17 11:59:37;;;;;;;32.65;12.63;;;;;;;-6.68;68.58;101123.55;3763705;77;98345;-96
2021/01/17 12:04:40;;;;;;;34.63;13.32;;;;;;;-6.68;69.15;101128.89;3759992;77;27594;-96
2021/01/17 12:09:41;;;;;;;33.60;11.70;;;;;;;-6.39;70.40;101109.47;3742570;77;98415;-96
2021/01/17 12:14:46;;;;;;;35.10;12.83;;;;;;;-6.34;69.16;101114.33;3748273;77;25802;-96
2021/01/17 12:19:47;;;;;;;30.57;12.07;;;;;;;-6.41;69.89;101120.94;3728490;77;98608;-96
2021/01/17 12:24:48;;;;;;;29.27;11.23;;;;;;;-6.32;69.34;101121.58;3754915;77;25975;-96
2021/01/17 12:29:49;;;;;;;29.25;12.07;;;;;;;-6.33;68.63;101111.14;3716201;77;98469;-96
2021/01/17 12:34:50;;;;;;;28.63;10.20;;;;;;;-6.36;69.71;101120.48;3743910;77;26846;-96
2021/01/17 12:39:51;;;;;;;39.70;18.23;;;;;;;-6.37;68.55;101124.73;3738710;77;98422;-96
2021/01/17 12:44:52;;;;;;;27.50;11.33;;;;;;;-6.60;68.50;101141.05;3752144;77;26454;-96
2021/01/17 12:49:53;;;;;;;34.73;13.47;;;;;;;-6.50;68.33;101145.99;3728046;77;98735;-96
2021/01/17 12:54:54;;;;;;;30.47;12.77;;;;;;;-6.40;69.67;101135.94;3743103;77;26007;-96
2021/01/17 12:59:57;;;;;;;31.40;12.43;;;;;;;-6.31;68.95;101146.50;3744783;77;98176;-96
2021/01/17 13:04:58;;;;;;;38.33;15.13;;;;;;;-6.20;68.80;101145.05;3763073;77;25957;-94
2021/01/17 13:09:59;;;;;;;41.13;15.08;;;;;;;-6.23;68.62;101137.50;3744455;77;98424;-96
2021/01/17 13:15:00;;;;;;;39.40;15.53;;;;;;;-6.15;69.03;101144.29;3766807;77;25976;-96
2021/01/17 13:20:01;;;;;;;37.43;15.50;;;;;;;-5.97;70.16;101145.30;3762964;76;98322;-96
2021/01/17 13:25:03;;;;;;;36.17;13.63;;;;;;;-5.83;70.94;101150.55;3735485;77;25885;-96
2021/01/17 13:30:09;;;;;;;38.23;14.83;;;;;;;-5.94;68.49;101151.50;3638312;79;97778;-96
2021/01/17 13:35:11;;;;;;;37.30;14.93;;;;;;;-6.05;69.47;101152.45;3730940;78;27520;-95
2021/01/17 13:45:22;;;;;;;32.30;11.67;;;;;;;-6.25;68.82;101147.66;3693553;78;27180;-96
2021/01/17 13:50:26;;;;;;;34.50;14.27;;;;;;;-6.30;68.88;101144.09;3591075;81;97726;-96
2021/01/17 13:55:28;;;;;;;39.10;13.97;;;;;;;-6.15;70.01;101153.15;3703919;78;27467;-96
2021/01/17 14:00:29;;;;;;;38.17;13.17;;;;;;;-6.06;69.17;101150.84;3713954;78;97683;-96
2021/01/17 14:05:30;;;;;;;41.73;15.13;;;;;;;-6.25;69.14;101153.54;3727483;78;25768;-96
2021/01/17 14:10:31;;;;;;;45.00;16.67;;;;;;;-6.48;69.69;101156.46;3719850;78;98158;-96
2021/01/17 14:15:32;;;;;;;40.47;15.70;;;;;;;-6.34;70.08;101165.22;3720511;78;25916;-96
2021/01/17 14:20:33;;;;;;;43.00;16.27;;;;;;;-6.30;69.51;101163.67;3714409;78;97695;-96
2021/01/17 14:25:34;;;;;;;40.77;16.10;;;;;;;-6.31;69.76;101163.39;3670214;79;26503;-96
2021/01/17 14:30:35;;;;;;;44.37;17.13;;;;;;;-6.33;69.43;101174.07;3689527;77;97707;-96
2021/01/17 14:35:36;;;;;;;51.93;17.13;;;;;;;-6.19;70.39;101186.02;3691538;77;25582;-96
2021/01/17 14:40:37;;;;;;;41.10;16.25;;;;;;;-6.40;69.99;101192.98;3679256;78;97663;-96
2021/01/17 14:45:38;;;;;;;51.17;23.80;;;;;;;-6.30;70.76;101194.47;3675761;79;25939;-96
2021/01/17 14:50:39;;;;;;;60.40;28.50;;;;;;;-6.22;70.86;101195.36;3658645;79;97676;-96
2021/01/17 14:55:40;;;;;;;49.08;19.73;;;;;;;-6.25;70.71;101197.22;3677788;79;25687;-96
2021/01/17 15:00:41;;;;;;;44.67;16.87;;;;;;;-6.24;70.52;101202.84;3663501;79;97648;-96
2021/01/17 15:05:43;;;;;;;41.97;16.37;;;;;;;-6.22;70.96;101210.64;3682038;79;44808;-96
2021/01/17 15:10:44;;;;;;;65.73;28.00;;;;;;;-6.14;70.62;101207.52;3697689;78;97818;-96
2021/01/17 15:15:45;;;;;;;64.73;25.40;;;;;;;-6.32;69.84;101209.95;3619570;80;31497;-96
2021/01/17 15:20:46;;;;;;;67.83;26.50;;;;;;;-6.37;70.94;101213.93;3701296;79;97682;-96
2021/01/17 15:25:47;;;;;;;57.40;24.10;;;;;;;-6.41;70.23;101208.78;3695869;79;29575;-96
2021/01/17 15:30:50;;;;;;;69.10;25.77;;;;;;;-6.36;70.71;101215.55;3709489;78;97727;-96
2021/01/17 15:35:50;;;;;;;140.93;45.10;;;;;;;-6.49;70.18;101212.41;3704136;79;31917;-96
2021/01/17 15:40:51;;;;;;;213.87;60.87;;;;;;;-6.73;70.29;101216.31;3678570;78;97840;-96
2021/01/17 15:45:52;;;;;;;286.87;82.40;;;;;;;-7.00;70.68;101211.33;3720405;78;32389;-96
2021/01/17 15:50:54;;;;;;;136.20;42.53;;;;;;;-7.10;71.06;101211.98;3703625;78;98048;-96
2021/01/17 15:55:55;;;;;;;95.10;33.23;;;;;;;-6.94;71.32;101219.72;3721994;79;30479;-96
2021/01/17 16:00:57;;;;;;;79.07;26.60;;;;;;;-6.93;71.73;101228.06;3724343;78;98132;-96
2021/01/17 16:06:02;;;;;;;76.87;31.17;;;;;;;-6.89;71.68;101238.53;3719797;79;33691;-96
2021/01/17 16:11:03;;;;;;;87.20;35.67;;;;;;;-7.04;71.70;101239.10;3699341;79;97781;-96
2021/01/17 16:16:07;;;;;;;138.17;50.07;;;;;;;-7.10;71.69;101245.42;3721971;79;33694;-96
2021/01/17 16:21:07;;;;;;;187.97;64.42;;;;;;;-7.24;72.07;101242.78;3710167;78;97689;-96
2021/01/17 16:26:08;;;;;;;184.17;67.07;;;;;;;-7.34;71.79;101238.59;3728611;78;33299;-96
2021/01/17 16:31:09;;;;;;;103.07;38.13;;;;;;;-7.27;72.87;101239.75;3677477;78;98452;-96
2021/01/17 16:36:10;;;;;;;112.50;40.90;;;;;;;-7.33;72.73;101238.05;3674565;78;32554;-96
2021/01/17 16:41:14;;;;;;;115.23;43.23;;;;;;;-7.44;72.97;101251.77;3667533;78;98453;-96
2021/01/17 16:46:15;;;;;;;121.67;46.07;;;;;;;-7.44;72.98;101254.95;3666368;78;33267;-96
2021/01/17 16:51:16;;;;;;;109.80;41.37;;;;;;;-7.56;72.59;101253.69;3668432;77;97639;-96
2021/01/17 16:56:17;;;;;;;94.87;36.83;;;;;;;-7.53;72.76;101259.88;3665730;79;33244;-96
2021/01/17 17:01:18;;;;;;;103.37;41.37;;;;;;;-7.72;73.15;101267.80;3643556;79;98672;-96
2021/01/17 17:06:24;;;;;;;161.30;59.97;;;;;;;-7.76;73.24;101273.83;3640606;80;31972;-96
2021/01/17 17:11:27;;;;;;;109.45;38.75;;;;;;;-7.85;73.55;101289.96;3675007;79;98478;-96
2021/01/17 17:16:32;;;;;;;145.17;56.33;;;;;;;-7.87;73.44;101297.38;3692748;79;33419;-96
2021/01/17 17:21:35;;;;;;;127.50;55.43;;;;;;;-7.88;73.58;101289.08;3681066;79;98371;-96
2021/01/17 17:26:39;;;;;;;125.13;49.97;;;;;;;-7.96;73.91;101297.47;3679184;79;33349;-96
2021/01/17 17:31:47;;;;;;;114.20;48.87;;;;;;;-8.08;73.96;101298.02;3682660;78;97667;-96
2021/01/17 17:36:50;;;;;;;118.77;47.93;;;;;;;-8.26;74.20;101295.48;3674710;79;33269;-96
2021/01/17 17:41:51;;;;;;;114.75;47.50;;;;;;;-8.25;74.87;101301.94;3676542;79;98366;-96
2021/01/17 17:46:52;;;;;;;113.57;49.20;;;;;;;-8.28;74.62;101306.39;3683383;78;33806;-96
2021/01/17 17:51:53;;;;;;;112.63;46.13;;;;;;;-8.33;74.79;101310.31;3655990;79;98413;-96
2021/01/17 17:56:54;;;;;;;142.33;54.27;;;;;;;-8.41;74.61;101313.84;3674304;79;33311;-96
2021/01/17 18:01:58;;;;;;;150.13;59.47;;;;;;;-8.39;74.35;101311.20;3679194;78;98520;-96
2021/01/17 18:06:58;;;;;;;137.53;53.17;;;;;;;-8.34;74.82;101305.20;3682792;78;33345;-96
2021/01/17 18:11:59;;;;;;;121.07;47.50;;;;;;;-8.41;74.67;101315.98;3662719;78;98480;-96
2021/01/17 18:17:00;;;;;;;137.40;49.03;;;;;;;-8.51;74.58;101311.73;3687197;78;32301;-96
2021/01/17 18:22:01;;;;;;;127.63;50.17;;;;;;;-8.55;75.13;101308.43;3684973;79;98375;-96
2021/01/17 18:27:02;;;;;;;136.83;54.57;;;;;;;-8.59;75.30;101310.75;3691011;78;32514;-96
2021/01/17 18:32:03;;;;;;;148.40;55.40;;;;;;;-8.73;74.61;101317.88;3684781;78;98483;-96
2021/01/17 18:37:04;;;;;;;151.17;58.67;;;;;;;-8.63;74.57;101312.75;3683199;78;30503;-96
2021/01/17 18:42:05;;;;;;;156.53;64.60;;;;;;;-8.49;74.11;101312.33;3684456;78;98286;-96
2021/01/17 18:47:06;;;;;;;166.90;67.43;;;;;;;-8.50;74.47;101309.34;3688606;78;30562;-96
2021/01/17 18:52:07;;;;;;;260.63;97.47;;;;;;;-8.66;73.98;101310.06;3634030;80;98358;-96
2021/01/17 18:57:09;;;;;;;232.10;88.97;;;;;;;-8.77;73.92;101309.48;3666129;79;25874;-96
2021/01/17 19:02:14;;;;;;;221.10;85.40;;;;;;;-8.74;74.39;101318.37;3656535;79;98320;-96
2021/01/17 19:07:15;;;;;;;209.57;85.23;;;;;;;-8.65;74.43;101325.02;3742865;77;33342;-96
2021/01/17 19:12:16;;;;;;;180.73;77.93;;;;;;;-8.74;73.76;101330.89;3734785;77;98670;-96
2021/01/17 19:17:17;;;;;;;226.30;85.67;;;;;;;-8.72;73.51;101338.16;3735964;77;31882;-96
2021/01/17 19:22:19;;;;;;;260.23;97.87;;;;;;;-8.94;73.45;101334.40;3731036;76;98645;-96
2021/01/17 19:27:21;;;;;;;211.37;86.33;;;;;;;-9.12;73.74;101316.60;3739187;77;33242;-96
2021/01/17 19:32:22;;;;;;;225.43;87.03;;;;;;;-9.12;73.74;101316.60;3733387;77;98750;-96
2021/01/17 19:37:23;;;;;;;222.07;84.80;;;;;;;-8.96;73.36;101327.95;3743712;77;33240;-96
2021/01/17 19:42:24;;;;;;;206.07;77.83;;;;;;;-9.08;72.86;101328.95;3727819;76;98284;-96
2021/01/17 19:47:25;;;;;;;248.37;92.03;;;;;;;-9.19;73.44;101331.06;3747473;77;31329;-96
2021/01/17 19:52:26;;;;;;;243.43;86.03;;;;;;;-9.11;73.36;101323.55;3744509;77;98888;-95
2021/01/17 19:57:27;;;;;;;233.83;86.20;;;;;;;-9.14;73.06;101328.53;3758531;76;31593;-94
2021/01/17 20:02:28;;;;;;;234.03;84.75;;;;;;;-9.28;73.11;101333.77;3749793;77;98686;-95
2021/01/17 20:07:29;;;;;;;231.80;88.27;;;;;;;-9.30;73.07;101329.98;3751101;77;29503;-95
2021/01/17 20:12:35;;;;;;;233.83;86.20;;;;;;;-9.29;73.00;101328.11;3750204;77;98694;-95
2021/01/17 20:17:36;;;;;;;;;;;;;;;-9.34;73.49;101323.98;3746299;77;99394;-94
2021/01/17 20:22:44;;;;;;;193.47;74.60;;;;;;;-9.35;73.34;101322.36;3670990;77;33368;-94
2021/01/17 20:27:45;;;;;;;204.77;70.33;;;;;;;-9.46;72.94;101337.77;3674827;77;98627;-94
2021/01/17 20:32:46;;;;;;;200.13;73.17;;;;;;;-9.55;73.13;101332.48;3716380;78;33379;-94
2021/01/17 20:37:50;;;;;;;191.10;74.10;;;;;;;-9.39;73.49;101329.99;3716986;77;98905;-95
2021/01/17 20:42:52;;;;;;;214.57;76.77;;;;;;;-9.35;72.97;101322.36;3716219;77;33358;-94
2021/01/17 20:47:53;;;;;;;186.13;68.77;;;;;;;-9.25;73.05;101323.46;3697279;77;98620;-96
2021/01/17 20:52:55;;;;;;;201.33;68.13;;;;;;;-9.16;73.12;101318.63;3653527;79;33403;-95
2021/01/17 20:57:57;;;;;;;184.37;66.22;;;;;;;-9.07;72.82;101311.41;3640289;79;99300;-96
2021/01/17 21:02:58;;;;;;;180.97;73.50;;;;;;;-9.12;72.21;101309.94;3662969;79;33345;-94
2021/01/17 21:07:59;;;;;;;203.55;72.50;;;;;;;-9.20;72.60;101302.27;3651419;79;98825;-96
2021/01/17 21:12:59;;;;;;;228.87;81.57;;;;;;;-9.12;72.79;101305.11;3644080;79;32427;-95
2021/01/17 21:18:00;;;;;;;230.43;84.53;;;;;;;-9.16;72.53;101304.76;3653564;79;98590;-93
2021/01/17 21:23:02;;;;;;;211.47;79.53;;;;;;;-9.42;73.22;101295.00;3659967;79;28549;-91
2021/01/17 21:28:03;;;;;;;194.77;72.63;;;;;;;-9.58;73.13;101301.77;3651774;79;99102;-91
2021/01/17 21:33:05;;;;;;;192.72;65.67;;;;;;;-9.79;73.42;101302.23;3655836;79;32475;-92
2021/01/17 21:38:06;;;;;;;212.95;73.55;;;;;;;-9.84;74.11;101311.41;3646018;79;98638;-91
2021/01/17 21:43:07;;;;;;;208.97;71.67;;;;;;;-9.84;74.11;101311.41;3637331;79;29969;-91
2021/01/17 21:48:09;;;;;;;218.43;75.83;;;;;;;-9.72;74.02;101296.30;3645023;77;98688;-93
2021/01/17 21:53:10;;;;;;;206.97;69.33;;;;;;;-9.83;74.17;101294.39;3678476;78;30549;-92
2021/01/17 21:58:12;;;;;;;175.97;61.63;;;;;;;-9.80;74.83;101305.94;3683494;77;98778;-91
2021/01/17 22:03:13;;;;;;;187.23;66.30;;;;;;;-9.87;74.42;101308.38;3674859;78;27556;-91
2021/01/17 22:08:14;;;;;;;194.27;64.37;;;;;;;-9.86;74.73;101320.12;3664435;78;98849;-92
2021/01/17 22:13:15;;;;;;;207.80;72.62;;;;;;;-9.87;74.67;101307.84;3675409;78;28565;-91
2021/01/17 22:18:17;;;;;;;216.97;76.60;;;;;;;-9.82;74.95;101320.52;3683039;77;98850;-91
2021/01/17 22:23:18;;;;;;;231.70;76.37;;;;;;;-9.86;74.65;101320.66;3672511;78;32466;-92
2021/01/17 22:28:19;;;;;;;218.23;73.53;;;;;;;-9.74;74.36;101316.20;3668528;78;98999;-91
2021/01/17 22:33:20;;;;;;;181.77;65.10;;;;;;;-9.63;74.20;101307.46;3665207;79;28555;-90
2021/01/17 22:38:21;;;;;;;184.23;64.93;;;;;;;-9.60;74.53;101305.16;3675704;78;98670;-91
2021/01/17 22:43:22;;;;;;;174.60;62.77;;;;;;;-9.63;74.16;101303.47;3678717;78;26046;-90
2021/01/17 22:48:23;;;;;;;168.13;57.00;;;;;;;-9.71;74.16;101292.59;3666657;78;98981;-91
2021/01/17 22:53:25;;;;;;;155.87;55.13;;;;;;;-9.79;74.53;101304.07;3644744;79;25916;-92
2021/01/17 22:58:26;;;;;;;155.87;57.40;;;;;;;-9.85;74.92;101308.45;3646552;78;99024;-93
2021/01/17 23:03:27;;;;;;;185.60;61.80;;;;;;;-9.95;74.81;101302.01;3673423;78;32198;-92
2021/01/17 23:08:28;;;;;;;245.13;80.17;;;;;;;-10.10;75.13;101297.09;3665698;78;98559;-90
2021/01/17 23:13:29;;;;;;;194.37;66.93;;;;;;;-10.12;75.39;101302.34;3701682;77;27955;-92
2021/01/17 23:18:30;;;;;;;201.77;69.43;;;;;;;-10.14;75.49;101304.41;3675217;77;98841;-92
2021/01/17 23:23:31;;;;;;;194.30;67.67;;;;;;;-10.11;75.43;101300.79;3680785;77;27272;-92
2021/01/17 23:28:32;;;;;;;201.50;69.87;;;;;;;-10.07;75.33;101295.83;3653905;78;99308;-92
2021/01/17 23:33:33;;;;;;;147.30;57.90;;;;;;;-10.06;75.38;101288.14;3687441;78;26677;-92
2021/01/17 23:38:34;;;;;;;170.47;56.57;;;;;;;-10.08;76.28;101298.20;3681530;78;99248;-91
2021/01/17 23:43:35;;;;;;;188.00;65.67;;;;;;;-10.08;75.61;101292.34;3676259;78;26308;-91
2021/01/17 23:48:36;;;;;;;164.60;57.83;;;;;;;-10.09;75.07;101285.94;3683577;78;99227;-91
2021/01/17 23:53:37;;;;;;;171.27;58.53;;;;;;;-10.03;75.27;101295.66;3697806;78;25908;-91